• Join FlightAware (Why Join?)
  • Login
  • US Flag 
05:41PM EDT


 

Airport Tracker/Info


-or-


 

Live Flight TrackerFlight Track Log ✈ N816BG ✈ 23-Jun-2014 ✈ KFNT - KPTK

Flight Track Log - Related Links

Times and Time Zones

All times are in EDT time to prevent confusion due to time zone crossing. See the N816BG flight status page for this flight to view local times or setup timezone preferences in your user account.

Time Position Orientation Groundspeed Altitude Reporting Facility
EDT Latitude Longitude Course Direction KTS MPH feet Rate Location/Type
09:25AM 42.9136 -83.6706 144° Southeast 240 276 4,000  Level Cleveland Center
09:27AM 42.8447 -83.7175 207° Southwest 244 281 4,000  Level Cleveland Center
09:28AM 42.7789 -83.7047 172° South 238 274 4,000 -420 Level Cleveland Center
09:29AM 42.7289 -83.6350 134° Southeast 248 285 3,200 -720 Descending Cleveland Center
09:29AM 42.6936 -83.5900 137° Southeast 225 259 2,700 -540 Descending Cleveland Center
09:30AM 42.6788 -83.4455 144° Southeast  Level FlightAware Approximate
09:30AM 42.6869 -83.5814 136° Southeast 231 266 2,700  Level Cleveland Center
09:30AM 42.6642 -83.5372 125° Southeast 173 199 2,500 -420 Descending Cleveland Center
09:31AM 42.6656 -83.4205 144° Southeast  Level Estimated
09:31AM 42.6647 -83.5267 86° East 197 227 2,300  Level Cleveland Center
09:31AM 42.6619 -83.4858 95° East 132 152 1,700 -780 Descending Cleveland Center
09:32AM 42.6622 -83.4653 89° East 153 176 1,500 -300 Descending Cleveland Center
09:33AM 42.6633 -83.4153 88° East 149 171 1,300 660 Descending Cleveland Center
09:33AM 42.6853 -83.3756 53° Northeast 243 280 2,600 1,620 Climbing Cleveland Center
09:35AM 42.7642 -83.3842 355° North 271 312 4,000 660 Climbing Cleveland Center
09:36AM 42.8311 -83.4136 342° North 266 306 4,000  Level Cleveland Center
09:37AM 42.8603 -83.4947 296° West 223 257 4,000  Level Cleveland Center
09:38AM 42.8733 -83.5706 283° West 188 216 4,000  Level Cleveland Center
09:39AM 42.8694 -83.6469 266° West 203 234 4,000 -120 Level Cleveland Center
09:40AM 42.8689 -83.7294 270° West 206 237 3,800 -540 Descending Cleveland Center
09:41AM 42.8678 -83.8022 269° West 204 235 3,000 -660 Descending Cleveland Center
09:42AM 42.9181 -83.8236 343° North 194 223 2,500 -540 Descending Cleveland Center